Time;durP1;ratioP1;P1;durP2;ratioP2;P2;SDS_P1;SDS_P2;PMS_P1;PMS_P2;Temp;Humidity;BMP_temperature;BMP_pressure;BME280_temperature;BME280_humidity;BME280_pressure;Samples;Min_cycle;Max_cycle;Signal;HPM_P1;HPM_P2
2023/07/19 00:01:19;;;;;;;17.60;11.20;;;28.70;89.30;;;;;;5045986;28;20260;-61
2023/07/19 00:03:46;;;;;;;13.47;9.60;;;28.70;89.50;;;;;;5041969;28;20214;-62
2023/07/19 00:06:14;;;;;;;13.83;9.77;;;28.70;89.60;;;;;;5040332;28;20238;-61
2023/07/19 00:08:41;;;;;;;17.03;9.83;;;28.70;89.70;;;;;;5041625;28;20195;-61
2023/07/19 00:11:08;;;;;;;12.47;9.20;;;28.70;89.80;;;;;;5043576;28;20671;-62
2023/07/19 00:13:35;;;;;;;13.20;9.73;;;28.70;89.80;;;;;;5044407;28;20294;-64
2023/07/19 00:16:02;;;;;;;19.90;9.50;;;28.60;89.80;;;;;;5048830;28;20260;-61
2023/07/19 00:18:30;;;;;;;12.77;8.90;;;28.60;89.80;;;;;;5041901;28;20205;-62
2023/07/19 00:20:57;;;;;;;15.73;10.60;;;28.60;89.90;;;;;;5044838;28;20237;-61
2023/07/19 00:23:24;;;;;;;15.97;9.70;;;28.60;89.90;;;;;;5043705;28;20195;-62
2023/07/19 00:25:51;;;;;;;22.37;10.33;;;28.50;89.90;;;;;;5042439;28;20632;-61
2023/07/19 00:28:18;;;;;;;16.00;10.23;;;28.50;89.90;;;;;;5041228;28;20278;-61
2023/07/19 00:30:45;;;;;;;14.83;9.97;;;28.50;89.80;;;;;;5044604;28;20252;-61
2023/07/19 00:41:13;;;;;;;11.47;9.27;;;28.40;89.40;;;;;;5041929;28;20191;-61
2023/07/19 00:43:40;;;;;;;12.27;8.63;;;28.30;89.20;;;;;;5047436;28;20208;-64
2023/07/19 00:46:07;;;;;;;11.37;10.10;;;28.20;89.30;;;;;;5043030;28;20227;-63
2023/07/19 00:48:35;;;;;;;14.03;10.20;;;28.20;89.10;;;;;;5042112;28;20280;-66
2023/07/19 00:51:02;;;;;;;16.17;9.60;;;28.10;88.90;;;;;;5044332;28;20290;-61
2023/07/19 00:53:32;;;;;;;15.67;9.37;;;28.10;88.70;;;;;;5043770;28;20268;-65
2023/07/19 00:55:59;;;;;;;11.90;9.00;;;28.10;88.50;;;;;;5045412;28;20217;-63
2023/07/19 00:58:27;;;;;;;14.53;9.00;;;28.00;89.10;;;;;;5045907;28;20210;-61
2023/07/19 01:00:54;;;;;;;10.40;8.53;;;27.90;88.50;;;;;;5026589;28;20198;-61
2023/07/19 01:03:21;;;;;;;17.83;9.73;;;27.80;88.50;;;;;;5039017;28;20217;-61
2023/07/19 01:05:48;;;;;;;14.87;8.50;;;27.80;88.30;;;;;;5036898;28;20235;-62
2023/07/19 01:08:17;;;;;;;14.87;9.23;;;27.70;88.10;;;;;;5041625;28;20230;-61
2023/07/19 01:10:49;;;;;;;14.27;9.07;;;27.70;87.90;;;;;;5036690;28;20206;-61
2023/07/19 01:13:17;;;;;;;14.43;8.40;;;27.70;88.00;;;;;;5038489;28;20229;-61
2023/07/19 01:15:44;;;;;;;16.93;8.53;;;27.60;88.00;;;;;;5045017;28;20207;-61
2023/07/19 01:18:11;;;;;;;9.40;8.43;;;27.60;87.90;;;;;;5040662;28;20223;-61
2023/07/19 01:20:38;;;;;;;23.53;9.97;;;27.50;87.80;;;;;;5040630;28;20229;-61
2023/07/19 01:23:05;;;;;;;14.70;8.83;;;27.60;87.90;;;;;;5041411;28;20268;-64
2023/07/19 01:25:33;;;;;;;9.90;8.47;;;27.50;87.90;;;;;;5043898;28;20243;-62
2023/07/19 01:28:00;;;;;;;12.23;9.07;;;27.50;88.10;;;;;;5042948;28;20206;-61
2023/07/19 01:30:27;;;;;;;18.00;9.03;;;27.50;88.20;;;;;;5038677;28;20214;-61
2023/07/19 01:32:54;;;;;;;15.80;8.63;;;27.50;88.30;;;;;;5040060;28;20210;-61
2023/07/19 01:35:22;;;;;;;13.50;8.17;;;27.40;88.40;;;;;;5047365;28;20199;-61
2023/07/19 01:37:49;;;;;;;13.57;8.30;;;27.40;88.40;;;;;;5039921;28;20279;-61
2023/07/19 01:40:16;;;;;;;11.13;7.10;;;27.40;88.40;;;;;;5042516;28;20594;-62
2023/07/19 01:42:46;;;;;;;13.20;7.50;;;27.40;88.60;;;;;;5042297;28;20267;-61
2023/07/19 01:45:13;;;;;;;11.30;8.27;;;27.40;88.70;;;;;;5040463;28;20214;-62
2023/07/19 01:47:40;;;;;;;12.33;7.23;;;27.40;88.80;;;;;;5042162;28;20205;-62
2023/07/19 01:50:10;;;;;;;12.53;7.27;;;27.30;88.80;;;;;;5049208;28;20198;-61
2023/07/19 01:52:38;;;;;;;10.63;6.17;;;27.40;88.90;;;;;;5042880;28;20661;-61
2023/07/19 01:55:06;;;;;;;14.57;7.53;;;27.40;88.90;;;;;;5043940;28;20285;-64
2023/07/19 01:57:34;;;;;;;17.83;7.77;;;27.40;89.00;;;;;;5037204;28;20207;-62
2023/07/19 02:00:01;;;;;;;14.70;6.60;;;27.40;89.00;;;;;;5045720;28;20538;-61
2023/07/19 02:02:42;;;;;;;12.90;7.40;;;27.40;89.00;;;;;;5039866;28;20260;-62
2023/07/19 02:05:09;;;;;;;12.37;6.80;;;27.30;88.90;;;;;;5038596;28;20201;-61
2023/07/19 02:07:39;;;;;;;10.13;6.27;;;27.40;89.00;;;;;;5041157;28;20257;-61
2023/07/19 02:10:06;;;;;;;12.30;6.63;;;27.40;89.00;;;;;;5059099;28;20206;-61
2023/07/19 02:12:33;;;;;;;12.53;6.53;;;27.40;89.10;;;;;;5044292;28;20287;-61
2023/07/19 02:15:03;;;;;;;14.00;6.60;;;27.40;89.10;;;;;;5039412;28;20210;-61
2023/07/19 02:17:30;;;;;;;13.03;6.77;;;27.40;89.20;;;;;;5039142;28;20245;-63
2023/07/19 02:19:57;;;;;;;18.60;6.77;;;27.30;89.10;;;;;;5035584;28;20198;-61
2023/07/19 02:22:24;;;;;;;16.07;6.60;;;27.30;89.00;;;;;;5042043;28;20257;-61
2023/07/19 02:24:51;;;;;;;11.10;6.47;;;27.30;89.00;;;;;;5043051;28;20232;-62
2023/07/19 02:27:18;;;;;;;15.73;6.90;;;27.40;89.10;;;;;;5045808;28;20313;-61
2023/07/19 02:29:46;;;;;;;11.03;6.07;;;27.30;89.00;;;;;;5042510;28;20207;-61
2023/07/19 02:32:13;;;;;;;10.93;7.47;;;27.30;89.00;;;;;;5042851;28;20618;-61
2023/07/19 02:34:40;;;;;;;10.37;6.53;;;27.30;89.00;;;;;;5044940;28;20216;-65
2023/07/19 02:37:08;;;;;;;10.73;7.33;;;27.30;89.10;;;;;;5043755;28;20199;-62
2023/07/19 02:39:35;;;;;;;13.80;7.53;;;27.30;89.10;;;;;;5044621;28;20655;-64
2023/07/19 02:42:04;;;;;;;14.10;7.87;;;27.30;89.20;;;;;;5043163;28;20225;-64
2023/07/19 02:44:31;;;;;;;12.73;8.10;;;27.30;89.30;;;;;;5045665;28;20197;-63
2023/07/19 02:46:58;;;;;;;15.27;8.33;;;27.30;89.30;;;;;;5044570;28;20271;-61
2023/07/19 02:49:25;;;;;;;14.30;8.67;;;27.30;89.40;;;;;;5044536;28;20199;-61
2023/07/19 02:51:55;;;;;;;13.53;8.20;;;27.30;89.50;;;;;;5045304;28;20215;-62
2023/07/19 02:54:22;;;;;;;12.57;8.00;;;27.30;89.40;;;;;;5043841;28;20202;-62
2023/07/19 02:56:49;;;;;;;13.77;8.83;;;27.20;89.50;;;;;;5044213;28;20196;-61
2023/07/19 02:59:16;;;;;;;12.97;8.80;;;27.20;89.60;;;;;;5045268;28;20191;-63
2023/07/19 03:01:43;;;;;;;10.27;9.07;;;27.30;89.80;;;;;;5048773;28;20215;-64
2023/07/19 03:04:12;;;;;;;12.60;9.07;;;27.20;89.80;;;;;;5044836;28;20210;-61
2023/07/19 03:06:40;;;;;;;11.97;9.73;;;27.20;90.00;;;;;;5043235;28;20202;-61
2023/07/19 03:09:07;;;;;;;16.60;9.27;;;27.20;89.90;;;;;;5050110;28;20282;-63
2023/07/19 03:11:35;;;;;;;16.87;10.63;;;27.20;89.90;;;;;;5045305;28;20198;-61
2023/07/19 03:14:04;;;;;;;11.57;9.73;;;27.20;90.00;;;;;;5051111;28;20213;-63
2023/07/19 03:16:31;;;;;;;15.80;10.53;;;27.10;90.00;;;;;;5052587;28;20260;-63
2023/07/19 03:18:58;;;;;;;18.33;10.83;;;27.10;90.10;;;;;;5040546;28;20206;-61
2023/07/19 03:21:26;;;;;;;13.10;10.03;;;27.10;90.20;;;;;;5042489;28;20191;-61
2023/07/19 03:23:53;;;;;;;17.23;11.03;;;27.10;90.40;;;;;;5041864;28;20222;-61
2023/07/19 03:26:20;;;;;;;15.97;10.60;;;27.10;90.50;;;;;;5043874;28;20238;-65
2023/07/19 03:28:49;;;;;;;15.17;10.90;;;27.10;90.60;;;;;;5039149;28;20305;-65
2023/07/19 03:31:17;;;;;;;18.67;11.33;;;27.10;90.70;;;;;;5044716;28;20529;-61
2023/07/19 03:33:45;;;;;;;13.00;10.80;;;27.10;90.70;;;;;;5043521;28;20301;-62
2023/07/19 03:36:14;;;;;;;22.03;11.47;;;27.10;90.80;;;;;;5050489;28;20217;-61
2023/07/19 03:38:41;;;;;;;13.70;11.30;;;27.20;90.80;;;;;;5047945;28;20230;-61
2023/07/19 03:41:09;;;;;;;15.83;12.20;;;27.20;90.90;;;;;;5050945;28;20209;-61
2023/07/19 03:43:38;;;;;;;13.17;11.10;;;27.20;90.90;;;;;;5037125;28;20233;-61
2023/07/19 03:46:06;;;;;;;14.87;11.67;;;27.20;90.90;;;;;;5046507;28;20205;-62
2023/07/19 03:48:37;;;;;;;15.70;10.73;;;27.20;90.80;;;;;;5047615;28;20665;-62
2023/07/19 03:51:04;;;;;;;15.63;12.03;;;27.20;90.80;;;;;;5050146;28;20207;-63
2023/07/19 03:53:33;;;;;;;14.10;11.73;;;27.20;90.80;;;;;;5040974;28;20222;-64
2023/07/19 03:56:00;;;;;;;15.87;10.97;;;27.20;90.80;;;;;;5041439;28;20524;-61
2023/07/19 03:58:28;;;;;;;17.03;11.43;;;27.20;90.80;;;;;;5041533;28;20684;-61
2023/07/19 04:00:59;;;;;;;16.63;11.20;;;27.10;90.90;;;;;;5042256;28;20206;-63
2023/07/19 04:03:30;;;;;;;13.47;11.47;;;27.10;90.90;;;;;;5039335;28;20199;-61
2023/07/19 04:05:58;;;;;;;14.27;11.03;;;27.10;91.00;;;;;;5037120;28;20698;-61
2023/07/19 04:08:26;;;;;;;21.20;11.77;;;27.10;91.00;;;;;;5044350;28;20226;-61
2023/07/19 04:10:54;;;;;;;14.57;11.17;;;27.10;91.00;;;;;;5045887;28;20283;-61
2023/07/19 04:13:25;;;;;;;20.30;13.17;;;27.10;91.00;;;;;;5044809;28;20215;-61
2023/07/19 04:15:53;;;;;;;17.57;13.23;;;27.10;91.00;;;;;;5045746;28;20773;-61
2023/07/19 04:18:21;;;;;;;16.53;13.10;;;27.10;91.30;;;;;;5043486;28;20203;-61
2023/07/19 04:20:58;;;;;;;16.37;11.60;;;27.00;91.00;;;;;;5051968;28;20568;-61
2023/07/19 04:23:27;;;;;;;17.87;12.30;;;27.00;91.20;;;;;;5045203;28;20305;-61
2023/07/19 04:25:54;;;;;;;18.30;12.40;;;27.00;91.20;;;;;;5043107;28;20246;-61
2023/07/19 04:28:22;;;;;;;19.37;13.43;;;27.10;91.20;;;;;;5042762;28;20616;-61
2023/07/19 04:30:49;;;;;;;16.57;13.60;;;27.10;91.20;;;;;;5039324;28;20525;-61
2023/07/19 04:33:17;;;;;;;17.37;13.63;;;27.10;91.30;;;;;;5045755;28;20643;-61
2023/07/19 04:35:47;;;;;;;18.50;13.53;;;27.00;91.30;;;;;;5044117;28;20210;-63
2023/07/19 04:38:19;;;;;;;17.87;12.53;;;27.00;91.40;;;;;;5055221;28;20214;-62
2023/07/19 04:40:46;;;;;;;16.77;13.17;;;27.10;91.40;;;;;;5039643;28;20257;-61
2023/07/19 04:43:14;;;;;;;17.53;12.70;;;27.10;91.40;;;;;;5042848;28;20216;-63
2023/07/19 04:45:43;;;;;;;18.70;12.27;;;27.20;91.40;;;;;;5043062;28;20199;-62
2023/07/19 04:48:12;;;;;;;19.70;13.40;;;27.20;91.40;;;;;;5045999;28;20199;-61
2023/07/19 04:50:40;;;;;;;14.97;13.17;;;27.20;91.30;;;;;;5042609;28;20561;-64
2023/07/19 04:53:09;;;;;;;15.67;12.10;;;27.20;91.30;;;;;;5049232;28;20762;-62
2023/07/19 04:55:36;;;;;;;14.17;12.73;;;27.30;91.20;;;;;;5040859;28;20203;-61
2023/07/19 04:58:04;;;;;;;17.40;12.40;;;27.30;91.20;;;;;;5048598;28;20219;-61
2023/07/19 05:00:31;;;;;;;16.10;12.20;;;27.40;91.20;;;;;;5044248;28;20628;-61
2023/07/19 05:02:58;;;;;;;16.63;13.70;;;27.40;91.20;;;;;;5043345;28;20203;-61
2023/07/19 05:05:26;;;;;;;17.50;12.47;;;27.50;91.20;;;;;;5035228;28;20679;-62
2023/07/19 05:07:53;;;;;;;14.40;12.33;;;27.50;91.10;;;;;;5040936;28;20206;-61
2023/07/19 05:10:21;;;;;;;16.17;12.80;;;27.60;91.10;;;;;;5040526;28;20690;-62
2023/07/19 05:12:48;;;;;;;15.60;12.40;;;27.60;90.90;;;;;;5046156;28;20218;-61
2023/07/19 05:15:16;;;;;;;15.00;13.03;;;27.70;90.80;;;;;;5053156;28;20211;-62
2023/07/19 05:17:43;;;;;;;18.60;11.57;;;27.70;90.70;;;;;;5037768;28;20203;-62
2023/07/19 05:20:12;;;;;;;16.23;12.80;;;27.80;90.60;;;;;;5038321;28;20210;-61
2023/07/19 05:22:39;;;;;;;17.57;12.97;;;27.80;90.60;;;;;;5041887;28;20282;-62
2023/07/19 05:25:09;;;;;;;19.10;12.93;;;27.80;90.60;;;;;;5041530;28;20210;-63
2023/07/19 05:27:36;;;;;;;16.27;13.00;;;27.90;90.60;;;;;;5038515;28;20191;-65
2023/07/19 05:30:04;;;;;;;18.23;12.60;;;27.90;90.60;;;;;;5039990;28;20202;-61
2023/07/19 05:32:31;;;;;;;18.87;12.50;;;27.90;90.50;;;;;;5039243;28;20215;-61
2023/07/19 05:34:59;;;;;;;16.50;13.47;;;28.00;90.50;;;;;;5042169;28;20206;-61
2023/07/19 05:37:27;;;;;;;18.80;12.27;;;28.10;90.40;;;;;;5041387;28;20207;-63
2023/07/19 05:39:54;;;;;;;20.47;12.73;;;28.20;90.30;;;;;;5041043;28;20671;-62
2023/07/19 05:42:21;;;;;;;15.07;12.27;;;28.20;90.30;;;;;;5036339;28;20260;-61
2023/07/19 05:44:48;;;;;;;14.17;12.23;;;28.30;90.10;;;;;;5041891;28;20191;-64
2023/07/19 05:47:17;;;;;;;17.17;12.80;;;28.30;90.20;;;;;;5042087;28;20595;-61
2023/07/19 05:49:45;;;;;;;19.83;11.90;;;28.40;90.10;;;;;;5044193;28;20276;-62
2023/07/19 05:52:13;;;;;;;13.40;12.03;;;28.50;90.00;;;;;;5044084;28;20203;-61
2023/07/19 05:54:40;;;;;;;17.43;12.53;;;28.70;89.70;;;;;;5036315;28;20276;-61
2023/07/19 05:57:07;;;;;;;15.00;11.60;;;28.80;89.30;;;;;;5041784;28;20265;-61
2023/07/19 05:59:34;;;;;;;19.20;11.10;;;28.90;89.00;;;;;;5041322;28;20589;-61
2023/07/19 06:02:02;;;;;;;14.70;11.13;;;29.00;88.80;;;;;;5039549;28;20637;-62
2023/07/19 06:04:29;;;;;;;18.00;11.50;;;29.20;88.70;;;;;;5043151;28;20550;-62
2023/07/19 06:06:56;;;;;;;17.67;11.43;;;29.30;88.30;;;;;;5037970;28;20241;-61
2023/07/19 06:09:23;;;;;;;17.83;10.57;;;29.40;88.00;;;;;;5040966;28;20203;-61
2023/07/19 06:11:50;;;;;;;15.60;11.30;;;29.60;87.60;;;;;;5039312;28;20203;-62
2023/07/19 06:14:17;;;;;;;17.17;11.13;;;29.70;87.10;;;;;;5043347;28;20226;-62
2023/07/19 06:16:44;;;;;;;18.37;11.43;;;29.80;86.70;;;;;;5046849;28;20229;-69
2023/07/19 06:19:16;;;;;;;18.93;10.30;;;30.00;86.30;;;;;;5042256;28;20244;-67
2023/07/19 06:21:43;;;;;;;16.77;10.47;;;30.10;85.70;;;;;;5039324;28;20210;-71
2023/07/19 06:24:10;;;;;;;19.87;11.20;;;30.30;85.30;;;;;;5037040;28;20257;-65
2023/07/19 06:26:37;;;;;;;16.93;11.17;;;30.40;84.70;;;;;;5048106;28;20252;-65
2023/07/19 06:29:04;;;;;;;17.20;10.70;;;30.60;84.20;;;;;;5050216;28;20765;-66
2023/07/19 06:31:31;;;;;;;17.30;9.80;;;30.60;83.70;;;;;;5053364;28;20620;-64
2023/07/19 06:33:58;;;;;;;13.33;9.80;;;30.80;83.50;;;;;;5050337;28;20218;-66
2023/07/19 06:36:26;;;;;;;17.60;11.03;;;30.90;83.10;;;;;;5046025;28;20195;-65
2023/07/19 06:38:53;;;;;;;16.67;10.00;;;31.00;82.60;;;;;;5042527;28;20628;-64
2023/07/19 06:41:20;;;;;;;19.27;11.10;;;31.10;82.10;;;;;;5042682;28;20291;-65
2023/07/19 06:43:50;;;;;;;15.67;11.47;;;31.20;82.00;;;;;;5048660;28;20206;-65
2023/07/19 06:46:17;;;;;;;12.43;10.50;;;31.30;81.60;;;;;;5043668;28;20217;-65
2023/07/19 06:48:44;;;;;;;18.63;10.37;;;31.30;81.40;;;;;;5047060;28;20201;-74
2023/07/19 06:51:12;;;;;;;17.50;10.33;;;31.40;81.20;;;;;;5048831;28;20199;-64
2023/07/19 06:53:39;;;;;;;14.90;10.90;;;31.50;80.80;;;;;;5045939;28;20229;-65
2023/07/19 06:56:07;;;;;;;13.27;10.20;;;31.60;80.40;;;;;;5050358;28;20205;-65
2023/07/19 06:58:34;;;;;;;17.83;10.20;;;31.80;80.00;;;;;;5046657;28;20204;-67
2023/07/19 07:01:04;;;;;;;11.93;9.73;;;31.90;79.60;;;;;;5047413;28;20195;-64
2023/07/19 07:03:31;;;;;;;16.50;8.97;;;32.00;79.40;;;;;;5046684;28;20210;-64
2023/07/19 07:06:00;;;;;;;14.50;10.53;;;32.10;79.00;;;;;;5044382;28;20207;-65
2023/07/19 07:08:30;;;;;;;14.33;9.73;;;32.20;78.50;;;;;;5045408;28;20257;-65
2023/07/19 07:11:00;;;;;;;12.03;9.73;;;32.30;78.00;;;;;;5045571;28;20195;-65
2023/07/19 07:13:28;;;;;;;15.07;10.13;;;32.40;77.80;;;;;;5043993;28;20272;-66
2023/07/19 07:15:57;;;;;;;18.77;10.37;;;32.50;77.50;;;;;;5043991;28;20207;-67
2023/07/19 07:18:24;;;;;;;20.03;9.87;;;32.50;76.90;;;;;;5038450;28;20607;-65
2023/07/19 07:20:52;;;;;;;15.10;10.13;;;32.60;76.10;;;;;;5042082;28;20203;-67
2023/07/19 07:23:19;;;;;;;15.33;10.03;;;32.50;75.80;;;;;;5048825;28;20504;-66
2023/07/19 07:25:52;;;;;;;17.37;10.33;;;32.50;76.30;;;;;;5048127;28;20246;-66
2023/07/19 07:28:19;;;;;;;12.97;9.37;;;32.50;76.60;;;;;;5045983;28;20576;-65
2023/07/19 07:30:49;;;;;;;15.00;9.20;;;32.50;76.60;;;;;;5041708;28;20235;-65
2023/07/19 07:33:19;;;;;;;14.70;9.97;;;32.50;76.40;;;;;;5046635;28;20233;-65
2023/07/19 07:35:47;;;;;;;21.13;9.67;;;32.60;75.90;;;;;;5045207;28;20234;-69
2023/07/19 07:38:14;;;;;;;14.77;9.33;;;32.70;75.90;;;;;;5042959;28;20191;-64
2023/07/19 07:40:41;;;;;;;14.80;8.13;;;32.80;76.00;;;;;;5048807;28;20592;-64
2023/07/19 07:43:08;;;;;;;13.63;8.80;;;32.90;75.60;;;;;;5044235;28;20285;-67
2023/07/19 07:45:36;;;;;;;15.47;9.00;;;33.00;75.30;;;;;;5041269;28;20261;-66
2023/07/19 07:48:03;;;;;;;13.83;8.37;;;33.10;74.60;;;;;;5044137;28;20195;-64
2023/07/19 07:50:30;;;;;;;14.20;9.00;;;33.10;74.40;;;;;;5041617;28;20195;-66
2023/07/19 07:52:57;;;;;;;16.33;8.40;;;33.20;74.40;;;;;;5043219;28;20199;-65
2023/07/19 07:55:40;;;;;;;15.00;8.13;;;33.30;74.50;;;;;;5045705;28;20203;-65
2023/07/19 07:58:07;;;;;;;11.13;8.60;;;33.40;74.20;;;;;;5043332;28;20608;-64
2023/07/19 08:00:34;;;;;;;15.17;9.27;;;33.60;73.80;;;;;;5043228;28;20216;-65
2023/07/19 08:03:01;;;;;;;11.17;8.03;;;33.70;73.40;;;;;;5050110;28;20214;-66
2023/07/19 08:05:29;;;;;;;15.33;8.63;;;33.80;73.10;;;;;;5040782;28;20230;-69
2023/07/19 08:07:56;;;;;;;13.80;8.47;;;34.00;72.70;;;;;;5043644;28;20249;-68
2023/07/19 08:10:23;;;;;;;13.50;8.23;;;34.10;72.30;;;;;;5045020;28;20268;-65
2023/07/19 08:12:50;;;;;;;20.37;8.37;;;34.20;71.80;;;;;;5041814;28;20199;-65
2023/07/19 08:15:18;;;;;;;11.60;7.97;;;34.20;71.60;;;;;;5041950;28;20231;-67
2023/07/19 08:17:45;;;;;;;14.15;9.13;;;34.20;71.60;;;;;;5038954;28;20690;-66
2023/07/19 08:20:12;;;;;;;14.87;8.97;;;34.10;71.20;;;;;;5041095;28;20277;-62
2023/07/19 08:22:39;;;;;;;14.43;7.90;;;34.00;71.10;;;;;;5042755;28;20258;-65
2023/07/19 08:25:07;;;;;;;13.93;9.00;;;34.00;71.50;;;;;;5043141;28;20643;-65
2023/07/19 08:27:52;;;;;;;17.53;8.47;;;34.00;71.90;;;;;;5040335;28;20631;-63
2023/07/19 08:30:20;;;;;;;9.30;8.20;;;34.10;72.00;;;;;;5041783;28;20669;-64
2023/07/19 08:32:48;;;;;;;13.67;7.87;;;34.10;71.70;;;;;;5041590;28;20833;-65
2023/07/19 08:35:16;;;;;;;15.60;8.18;;;34.20;71.30;;;;;;5041453;28;20230;-63
2023/07/19 08:37:44;;;;;;;13.03;7.13;;;34.30;70.90;;;;;;5044445;28;20206;-63
2023/07/19 08:40:14;;;;;;;11.37;8.37;;;34.40;70.70;;;;;;5046310;28;20561;-64
2023/07/19 08:42:42;;;;;;;13.87;8.10;;;34.50;70.30;;;;;;5047134;28;20195;-66
2023/07/19 08:45:11;;;;;;;12.07;8.68;;;34.70;69.90;;;;;;5047369;28;20206;-64
2023/07/19 08:47:44;;;;;;;10.73;7.73;;;34.80;69.30;;;;;;5040440;28;20217;-63
2023/07/19 08:50:11;;;;;;;17.38;8.00;;;35.00;68.50;;;;;;5040331;28;20278;-65
2023/07/19 08:52:38;;;;;;;12.98;8.90;;;35.00;68.20;;;;;;5038100;28;20218;-63
2023/07/19 08:55:12;;;;;;;17.60;9.27;;;35.00;68.20;;;;;;5044170;28;20207;-64
2023/07/19 08:57:40;;;;;;;14.50;9.75;;;35.10;68.60;;;;;;5043659;28;20517;-66
2023/07/19 09:00:07;;;;;;;12.65;8.55;;;35.20;68.10;;;;;;5043646;28;20202;-64
2023/07/19 09:02:36;;;;;;;15.93;9.27;;;35.40;68.10;;;;;;5040978;28;20227;-68
2023/07/19 09:05:11;;;;;;;11.30;8.82;;;35.70;67.30;;;;;;5039706;28;20233;-67
2023/07/19 09:07:39;;;;;;;17.80;8.68;;;35.80;66.50;;;;;;5041090;28;20255;-66
2023/07/19 09:10:07;;;;;;;16.60;8.38;;;36.00;65.80;;;;;;5038927;28;20253;-66
2023/07/19 09:12:42;;;;;;;16.55;7.88;;;36.10;65.10;;;;;;5041739;28;20191;-65
2023/07/19 09:15:11;;;;;;;12.15;7.47;;;36.10;64.30;;;;;;5045625;28;20211;-64
2023/07/19 09:17:47;;;;;;;13.02;8.40;;;36.10;63.50;;;;;;5044547;28;20230;-64
2023/07/19 09:20:16;;;;;;;10.80;8.13;;;36.20;64.00;;;;;;5045861;28;20639;-65
2023/07/19 09:22:44;;;;;;;14.40;8.40;;;36.10;63.80;;;;;;5045512;28;20195;-64
2023/07/19 09:25:12;;;;;;;11.98;8.35;;;36.00;64.10;;;;;;5039748;28;20264;-65
2023/07/19 09:27:43;;;;;;;9.70;7.72;;;35.90;64.40;;;;;;5038623;28;20203;-74
2023/07/19 09:30:12;;;;;;;13.15;7.68;;;35.80;64.40;;;;;;5043012;28;20248;-64
2023/07/19 09:32:40;;;;;;;14.38;8.70;;;35.90;63.90;;;;;;5042680;28;20261;-66
2023/07/19 09:35:09;;;;;;;10.93;8.57;;;35.90;63.80;;;;;;5040221;28;20245;-68
2023/07/19 09:37:36;;;;;;;17.17;9.43;;;35.90;64.10;;;;;;5042449;28;20211;-65
2023/07/19 09:40:04;;;;;;;20.45;8.48;;;35.90;64.00;;;;;;5040123;28;20603;-65
2023/07/19 09:42:32;;;;;;;10.38;8.60;;;36.00;64.10;;;;;;5037133;28;20214;-64
2023/07/19 09:45:00;;;;;;;12.00;8.02;;;36.20;64.00;;;;;;5039964;28;20236;-67
2023/07/19 09:47:29;;;;;;;16.08;7.53;;;36.40;63.30;;;;;;5040666;28;20199;-66
2023/07/19 09:49:59;;;;;;;13.98;7.10;;;36.60;62.20;;;;;;5043008;28;20198;-64
2023/07/19 09:52:28;;;;;;;15.90;9.15;;;36.80;61.50;;;;;;5040425;28;20211;-63
2023/07/19 09:54:56;;;;;;;12.05;7.65;;;36.90;60.80;;;;;;5045148;28;20234;-65
2023/07/19 09:57:27;;;;;;;15.32;8.20;;;36.90;61.00;;;;;;5045874;28;20648;-63
2023/07/19 09:59:54;;;;;;;9.15;7.18;;;36.80;60.80;;;;;;5043074;28;20207;-64
2023/07/19 10:02:22;;;;;;;11.00;7.95;;;36.60;61.10;;;;;;5039109;28;20492;-63
2023/07/19 10:04:52;;;;;;;11.30;8.15;;;36.50;61.80;;;;;;5040991;28;20702;-65
2023/07/19 10:07:21;;;;;;;12.00;8.13;;;36.50;61.90;;;;;;5037873;28;20199;-68
2023/07/19 10:09:52;;;;;;;15.52;8.00;;;36.50;61.30;;;;;;5041700;28;20620;-66
2023/07/19 10:12:19;;;;;;;15.73;7.85;;;36.60;60.20;;;;;;5042252;28;20253;-65
2023/07/19 10:15:03;;;;;;;18.75;7.85;;;36.60;59.30;;;;;;5045900;28;20229;-63
2023/07/19 10:17:52;;;;;;;11.05;7.80;;;36.60;59.40;;;;;;5038561;28;20256;-65
2023/07/19 10:20:36;;;;;;;14.38;8.77;;;36.50;58.30;;;;;;5045109;28;20287;-66
2023/07/19 10:23:08;;;;;;;8.63;7.68;;;36.30;59.40;;;;;;5045317;28;20205;-66
2023/07/19 10:25:49;;;;;;;10.93;6.50;;;36.30;58.80;;;;;;5041146;28;20230;-68
2023/07/19 10:28:29;;;;;;;14.25;6.88;;;36.30;59.10;;;;;;5039460;28;20594;-66
2023/07/19 10:30:59;;;;;;;12.70;8.13;;;36.50;58.90;;;;;;5039072;28;20199;-66
2023/07/19 10:33:46;;;;;;;17.58;8.25;;;36.70;58.00;;;;;;5042909;28;20526;-67
2023/07/19 10:36:14;;;;;;;11.40;8.65;;;36.70;58.40;;;;;;5039704;28;20203;-68
2023/07/19 10:38:41;;;;;;;10.93;7.07;;;36.80;57.80;;;;;;5038913;28;20202;-61
2023/07/19 10:41:10;;;;;;;10.10;7.32;;;36.80;58.00;;;;;;5036028;28;20274;-67
2023/07/19 10:43:38;;;;;;;14.35;7.28;;;37.00;58.50;;;;;;5038555;28;20195;-65
2023/07/19 10:46:08;;;;;;;12.82;6.35;;;37.20;58.00;;;;;;5041527;28;20513;-68
2023/07/19 10:48:37;;;;;;;10.63;5.72;;;37.50;57.30;;;;;;5040036;28;20211;-63
2023/07/19 10:51:08;;;;;;;11.07;6.25;;;37.70;56.70;;;;;;5040921;28;20286;-61
2023/07/19 10:53:57;;;;;;;8.32;6.10;;;37.90;55.80;;;;;;5037676;28;20286;-65
2023/07/19 10:56:26;;;;;;;13.55;6.93;;;38.00;55.10;;;;;;5046714;28;20199;-66
2023/07/19 10:59:00;;;;;;;7.55;5.82;;;38.10;54.70;;;;;;5038335;28;20290;-65
2023/07/19 11:01:29;;;;;;;10.95;6.38;;;38.10;54.10;;;;;;5042747;28;20277;-64
2023/07/19 11:04:05;;;;;;;11.70;6.97;;;38.10;54.10;;;;;;5038886;28;20200;-69
2023/07/19 11:06:36;;;;;;;9.48;6.25;;;38.00;54.70;;;;;;5033051;28;20195;-65
2023/07/19 11:09:07;;;;;;;10.65;6.70;;;37.80;54.60;;;;;;5037732;28;20645;-65
2023/07/19 11:11:38;;;;;;;11.68;6.65;;;37.80;54.40;;;;;;5045106;28;20207;-63
2023/07/19 11:14:06;;;;;;;8.82;6.45;;;37.80;54.90;;;;;;5042797;28;20214;-64
2023/07/19 11:16:34;;;;;;;14.57;7.07;;;37.90;54.20;;;;;;5045310;28;20540;-63
2023/07/19 11:19:01;;;;;;;11.55;6.57;;;38.00;53.90;;;;;;5049027;28;20207;-65
2023/07/19 11:21:28;;;;;;;12.82;7.53;;;38.10;52.60;;;;;;5046287;28;20194;-63
2023/07/19 11:23:55;;;;;;;10.45;6.57;;;38.10;51.80;;;;;;5042238;28;20781;-65
2023/07/19 11:26:22;;;;;;;10.70;7.47;;;38.00;52.80;;;;;;5040594;28;20297;-62
2023/07/19 11:28:54;;;;;;;12.50;6.30;;;38.00;53.60;;;;;;5044679;28;20198;-63
2023/07/19 11:31:29;;;;;;;9.00;6.85;;;38.00;54.00;;;;;;5042643;28;20198;-63
2023/07/19 11:34:00;;;;;;;7.90;6.80;;;38.10;54.30;;;;;;5041892;28;20285;-63
2023/07/19 11:36:28;;;;;;;11.82;7.25;;;38.30;53.80;;;;;;5040834;28;20293;-65
2023/07/19 11:38:55;;;;;;;9.10;6.82;;;38.40;53.90;;;;;;5041549;28;20223;-66
2023/07/19 11:41:22;;;;;;;10.45;7.05;;;38.50;53.30;;;;;;5041183;28;20638;-63
2023/07/19 11:43:53;;;;;;;9.93;6.45;;;38.50;53.60;;;;;;5045057;28;20190;-65
2023/07/19 11:46:20;;;;;;;11.70;7.18;;;38.50;53.80;;;;;;5038968;28;20196;-63
2023/07/19 11:48:47;;;;;;;9.15;6.18;;;38.60;53.90;;;;;;5040519;28;20192;-63
2023/07/19 11:51:14;;;;;;;11.20;6.90;;;38.70;53.10;;;;;;5041840;28;20237;-63
2023/07/19 11:53:41;;;;;;;10.68;7.15;;;38.70;53.20;;;;;;5045003;28;20214;-63
2023/07/19 11:56:09;;;;;;;14.77;6.88;;;38.70;53.20;;;;;;5043470;28;20326;-66
2023/07/19 11:58:38;;;;;;;14.82;6.90;;;38.80;53.10;;;;;;5043341;28;20597;-62
2023/07/19 12:01:13;;;;;;;8.23;5.90;;;38.80;52.60;;;;;;5043641;28;20197;-64
2023/07/19 12:03:40;;;;;;;12.38;7.60;;;38.80;53.00;;;;;;5039110;28;20707;-64
2023/07/19 12:06:08;;;;;;;10.70;7.50;;;38.80;53.60;;;;;;5037574;28;20195;-63
2023/07/19 12:08:36;;;;;;;13.52;7.15;;;38.90;53.90;;;;;;5038132;28;20207;-69
2023/07/19 12:11:03;;;;;;;14.35;7.35;;;39.00;52.70;;;;;;5045232;28;20213;-62
2023/07/19 12:13:30;;;;;;;15.88;7.35;;;39.00;52.80;;;;;;5040978;28;20202;-68
2023/07/19 12:15:57;;;;;;;11.27;7.13;;;39.10;53.20;;;;;;5038627;28;20210;-60
2023/07/19 12:18:25;;;;;;;10.60;7.63;;;39.10;53.00;;;;;;5043107;28;20199;-64
2023/07/19 12:20:55;;;;;;;11.13;7.82;;;39.10;51.90;;;;;;5040153;28;20204;-60
2023/07/19 12:23:23;;;;;;;11.00;8.10;;;39.00;52.00;;;;;;5039536;28;20662;-64
2023/07/19 12:25:53;;;;;;;16.73;7.72;;;39.00;52.10;;;;;;5039402;28;20234;-63
2023/07/19 12:28:22;;;;;;;12.45;7.40;;;38.90;52.80;;;;;;5042176;28;20195;-68
2023/07/19 12:30:50;;;;;;;16.77;7.38;;;38.90;52.50;;;;;;5041911;28;20236;-61
2023/07/19 12:33:17;;;;;;;13.07;7.72;;;39.00;52.20;;;;;;5039978;28;20237;-63
2023/07/19 12:35:46;;;;;;;12.15;7.20;;;39.00;51.80;;;;;;5041438;28;20207;-65
2023/07/19 12:38:15;;;;;;;10.30;7.47;;;39.00;52.50;;;;;;5040324;28;20690;-68
2023/07/19 12:40:45;;;;;;;12.75;7.25;;;39.00;51.40;;;;;;5043650;28;20198;-62
2023/07/19 12:43:13;;;;;;;11.00;7.43;;;39.00;52.10;;;;;;5045962;28;20245;-63
2023/07/19 12:45:41;;;;;;;10.95;7.55;;;38.90;52.90;;;;;;5044032;28;20213;-66
2023/07/19 12:48:08;;;;;;;7.60;6.70;;;39.00;52.10;;;;;;5041955;28;20276;-68